createdAt,value
2023-11-22T00:00:51.012Z,10.40
2023-11-22T00:03:18.619Z,10.40
2023-11-22T00:05:46.211Z,10.50
2023-11-22T00:08:13.777Z,10.40
2023-11-22T00:10:41.387Z,10.40
2023-11-22T00:13:08.794Z,10.40
2023-11-22T00:15:37.325Z,10.30
2023-11-22T00:18:05.133Z,10.40
2023-11-22T00:20:34.313Z,10.30
2023-11-22T00:23:01.787Z,10.30
2023-11-22T00:25:29.358Z,10.40
2023-11-22T00:27:56.864Z,10.20
2023-11-22T00:30:24.377Z,10.20
2023-11-22T00:32:53.196Z,10.20
2023-11-22T00:35:20.712Z,10.20
2023-11-22T00:37:48.146Z,10.10
2023-11-22T00:40:15.654Z,10.10
2023-11-22T00:42:44.273Z,10.10
2023-11-22T00:45:12.158Z,10.00
2023-11-22T00:47:40.189Z,10.00
2023-11-22T00:50:09.036Z,9.90
2023-11-22T00:52:36.868Z,9.80
2023-11-22T00:55:04.673Z,9.80
2023-11-22T00:57:32.293Z,9.70
2023-11-22T00:59:59.892Z,9.60
2023-11-22T01:02:27.668Z,9.60
2023-11-22T01:04:55.715Z,9.50
2023-11-22T01:07:23.263Z,9.40
2023-11-22T01:09:50.683Z,9.40
2023-11-22T01:12:18.584Z,9.40
2023-11-22T01:14:46.611Z,9.30
2023-11-22T01:17:14.420Z,9.20
2023-11-22T01:19:42.714Z,9.20
2023-11-22T01:22:10.231Z,9.20
2023-11-22T01:24:38.455Z,9.20
2023-11-22T01:27:07.123Z,9.20
2023-11-22T01:29:35.796Z,9.20
2023-11-22T01:32:03.961Z,9.10
2023-11-22T01:34:31.626Z,9.10
2023-11-22T01:36:59.127Z,9.10
2023-11-22T01:39:27.420Z,9.00
2023-11-22T01:41:55.341Z,9.00
2023-11-22T01:44:23.015Z,9.00
2023-11-22T01:46:50.611Z,9.00
2023-11-22T01:49:18.393Z,9.00
2023-11-22T01:51:46.099Z,8.90
2023-11-22T01:54:13.777Z,8.90
2023-11-22T01:56:41.702Z,8.90
2023-11-22T01:59:09.855Z,8.90
2023-11-22T02:01:38.438Z,8.80
2023-11-22T02:04:07.724Z,8.80
2023-11-22T02:06:36.745Z,8.80
2023-11-22T02:09:04.649Z,8.80
2023-11-22T02:11:32.129Z,8.90
2023-11-22T02:13:59.969Z,8.80
2023-11-22T02:16:28.924Z,8.80
2023-11-22T02:18:56.592Z,8.90
2023-11-22T02:21:24.167Z,8.80
2023-11-22T02:23:51.756Z,8.80
2023-11-22T02:26:19.781Z,8.90
2023-11-22T02:28:49.445Z,8.90
2023-11-22T02:31:18.677Z,8.80
2023-11-22T02:33:46.297Z,8.80
2023-11-22T02:36:14.339Z,8.80
2023-11-22T02:38:42.205Z,8.80
2023-11-22T02:41:10.747Z,8.80
2023-11-22T02:43:38.868Z,8.80
2023-11-22T02:46:06.469Z,8.80
2023-11-22T02:48:34.704Z,8.80
2023-11-22T02:51:02.255Z,8.80
2023-11-22T02:53:31.246Z,8.80
2023-11-22T02:56:02.562Z,8.80
2023-11-22T02:58:32.129Z,8.80
2023-11-22T03:00:59.771Z,8.80
2023-11-22T03:03:27.319Z,8.80
2023-11-22T03:05:55.750Z,8.80
2023-11-22T03:08:23.239Z,8.80
2023-11-22T03:10:52.159Z,8.80
2023-11-22T03:13:20.004Z,8.80
2023-11-22T03:15:47.838Z,8.80
2023-11-22T03:18:17.628Z,8.80
2023-11-22T03:20:45.518Z,8.80
2023-11-22T03:23:13.097Z,8.80
2023-11-22T03:25:40.557Z,8.80
2023-11-22T03:28:08.170Z,8.80
2023-11-22T03:30:35.783Z,8.80
2023-11-22T03:33:03.549Z,8.80
2023-11-22T03:35:31.005Z,8.80
2023-11-22T03:37:58.873Z,8.80
2023-11-22T03:40:26.426Z,8.80
2023-11-22T03:42:53.971Z,8.80
2023-11-22T03:45:21.480Z,8.80
2023-11-22T03:47:48.993Z,8.80
2023-11-22T03:50:17.015Z,8.80
2023-11-22T03:52:44.675Z,8.70
2023-11-22T03:55:12.244Z,8.70
2023-11-22T03:57:39.701Z,8.70
2023-11-22T04:00:08.008Z,8.70
2023-11-22T04:02:41.009Z,8.70
2023-11-22T04:05:09.028Z,8.70
2023-11-22T04:07:36.766Z,8.70
2023-11-22T04:10:05.257Z,8.70
2023-11-22T04:12:35.385Z,8.60
2023-11-22T04:15:04.338Z,8.60
2023-11-22T04:17:33.725Z,8.60
2023-11-22T04:20:02.052Z,8.60
2023-11-22T04:22:29.934Z,8.60
2023-11-22T04:24:57.589Z,8.60
2023-11-22T04:27:25.039Z,8.50
2023-11-22T04:29:52.752Z,8.50
2023-11-22T04:32:20.352Z,8.50
2023-11-22T04:34:47.792Z,8.50
2023-11-22T04:37:15.295Z,8.50
2023-11-22T04:39:42.883Z,8.40
2023-11-22T04:42:10.420Z,8.40
2023-11-22T04:44:37.851Z,8.40
2023-11-22T04:47:07.394Z,8.40
2023-11-22T04:49:34.894Z,8.40
2023-11-22T04:52:02.563Z,8.40
2023-11-22T04:54:30.090Z,8.30
2023-11-22T04:56:57.588Z,8.30
2023-11-22T04:59:25.108Z,8.30
2023-11-22T05:01:52.689Z,8.30
2023-11-22T05:04:20.385Z,8.20
2023-11-22T05:06:48.343Z,8.20
2023-11-22T05:09:15.745Z,8.20
2023-11-22T05:11:43.189Z,8.20
2023-11-22T05:14:10.712Z,8.20
2023-11-22T05:16:38.210Z,8.10
2023-11-22T05:19:05.691Z,8.10
2023-11-22T05:21:33.551Z,8.10
2023-11-22T05:24:00.981Z,8.00
2023-11-22T05:26:28.602Z,8.00
2023-11-22T05:28:56.085Z,8.00
2023-11-22T05:31:24.271Z,8.00
2023-11-22T05:33:51.748Z,8.00
2023-11-22T05:36:19.230Z,7.90
2023-11-22T05:38:46.776Z,7.90
2023-11-22T05:41:14.334Z,7.90
2023-11-22T05:43:43.833Z,7.90
2023-11-22T05:46:13.762Z,7.90
2023-11-22T05:48:41.369Z,7.90
2023-11-22T05:51:09.707Z,7.90
2023-11-22T05:53:37.342Z,7.90
2023-11-22T05:56:06.427Z,7.90
2023-11-22T05:58:34.716Z,7.90
2023-11-22T06:01:02.144Z,7.80
2023-11-22T06:03:29.758Z,7.80
2023-11-22T06:05:58.618Z,7.80
2023-11-22T06:08:26.428Z,7.80
2023-11-22T06:10:54.236Z,7.80
2023-11-22T06:13:22.131Z,7.80
2023-11-22T06:15:49.580Z,7.80
2023-11-22T06:18:17.612Z,7.70
2023-11-22T06:20:45.842Z,7.80
2023-11-22T06:23:13.879Z,7.80
2023-11-22T06:25:43.064Z,7.70
2023-11-22T06:28:11.302Z,7.70
2023-11-22T06:30:38.752Z,7.70
2023-11-22T06:33:06.355Z,7.70
2023-11-22T06:35:34.107Z,7.70
2023-11-22T06:38:01.578Z,7.60
2023-11-22T06:40:30.810Z,7.60
2023-11-22T06:42:59.171Z,7.60
2023-11-22T06:45:27.021Z,7.60
2023-11-22T06:47:54.612Z,7.60
2023-11-22T06:50:22.309Z,7.60
2023-11-22T06:52:51.203Z,7.50
2023-11-22T06:55:18.803Z,7.50
2023-11-22T06:57:46.869Z,7.50
2023-11-22T07:00:14.681Z,7.50
2023-11-22T07:02:42.582Z,7.50
2023-11-22T07:05:10.839Z,7.50
2023-11-22T07:07:39.519Z,7.50
2023-11-22T07:10:07.687Z,7.40
2023-11-22T07:12:35.632Z,7.40
2023-11-22T07:15:04.340Z,7.40
2023-11-22T07:17:34.758Z,7.40
2023-11-22T07:20:02.448Z,7.40
2023-11-22T07:22:31.668Z,7.40
2023-11-22T07:25:03.522Z,7.30
2023-11-22T07:27:33.799Z,7.30
2023-11-22T07:30:02.179Z,7.30
2023-11-22T07:32:32.414Z,7.30
2023-11-22T07:35:04.340Z,7.30
2023-11-22T07:37:32.688Z,7.30
2023-11-22T07:40:00.486Z,7.30
2023-11-22T07:42:28.005Z,7.20
2023-11-22T07:44:57.288Z,7.20
2023-11-22T07:47:25.577Z,7.20
2023-11-22T07:49:53.309Z,7.30
2023-11-22T07:52:20.770Z,7.30
2023-11-22T07:54:48.413Z,7.30
2023-11-22T07:57:16.845Z,7.30
2023-11-22T07:59:44.337Z,7.40
2023-11-22T08:02:13.033Z,7.40
2023-11-22T08:04:41.691Z,7.40
2023-11-22T08:07:09.410Z,7.50
2023-11-22T08:09:36.879Z,7.50
2023-11-22T08:12:06.512Z,7.50
2023-11-22T08:14:34.885Z,7.60
2023-11-22T08:17:03.061Z,7.60
2023-11-22T08:19:31.039Z,7.60
2023-11-22T08:21:58.709Z,7.70
2023-11-22T08:24:26.205Z,7.70
2023-11-22T08:26:54.572Z,7.70
2023-11-22T08:29:22.097Z,7.80
2023-11-22T08:31:51.959Z,7.80
2023-11-22T08:34:19.641Z,7.80
2023-11-22T08:36:47.301Z,7.90
2023-11-22T08:39:14.937Z,7.90
2023-11-22T08:41:42.561Z,7.90
2023-11-22T08:44:10.956Z,8.00
2023-11-22T08:46:38.572Z,8.00
2023-11-22T08:49:07.578Z,8.00
2023-11-22T08:51:35.114Z,8.00
2023-11-22T08:54:02.710Z,8.10
2023-11-22T08:56:30.661Z,8.10
2023-11-22T08:58:58.239Z,8.10
2023-11-22T09:01:26.986Z,8.20
2023-11-22T09:03:54.715Z,8.20
2023-11-22T09:06:22.350Z,8.20
2023-11-22T09:08:50.596Z,8.30
2023-11-22T09:11:21.114Z,8.30
2023-11-22T09:13:49.827Z,8.30
2023-11-22T09:16:19.437Z,8.40
2023-11-22T09:18:47.047Z,8.40
2023-11-22T09:21:16.770Z,8.50
2023-11-22T09:23:45.862Z,8.50
2023-11-22T09:26:13.435Z,8.60
2023-11-22T09:28:44.335Z,8.70
2023-11-22T09:31:19.101Z,8.80
2023-11-22T09:33:46.771Z,8.90
2023-11-22T09:36:16.092Z,9.00
2023-11-22T09:38:43.702Z,9.10
2023-11-22T09:41:12.241Z,9.20
2023-11-22T09:43:41.089Z,9.30
2023-11-22T09:46:12.619Z,9.40
2023-11-22T09:48:42.498Z,9.50
2023-11-22T09:51:12.884Z,9.60
2023-11-22T09:53:40.373Z,9.70
2023-11-22T09:56:11.245Z,9.80
2023-11-22T09:58:41.451Z,9.90
2023-11-22T10:01:09.850Z,10.00
2023-11-22T10:03:37.774Z,10.10
2023-11-22T10:06:05.738Z,10.20
2023-11-22T10:08:34.061Z,10.30
2023-11-22T10:11:02.441Z,10.30
2023-11-22T10:13:30.782Z,10.40
2023-11-22T10:16:11.056Z,10.40
2023-11-22T10:18:47.371Z,10.50
2023-11-22T10:21:34.013Z,10.50
2023-11-22T10:24:04.256Z,10.60
2023-11-22T10:26:32.445Z,10.70
2023-11-22T10:29:00.322Z,10.80
2023-11-22T10:31:31.237Z,10.80
2023-11-22T10:33:59.559Z,10.90
2023-11-22T10:36:27.391Z,10.90
2023-11-22T10:38:55.730Z,11.00
2023-11-22T10:41:24.289Z,11.00
2023-11-22T10:43:58.369Z,11.00
2023-11-22T10:46:31.037Z,11.10
2023-11-22T10:48:59.684Z,11.10
2023-11-22T10:51:42.060Z,11.10
2023-11-22T10:54:10.313Z,11.20
2023-11-22T10:56:42.747Z,11.20
2023-11-22T10:59:15.133Z,11.20
2023-11-22T11:01:50.432Z,11.30
2023-11-22T11:04:26.087Z,11.30
2023-11-22T11:06:57.222Z,11.30
2023-11-22T11:09:33.245Z,11.30
2023-11-22T11:12:01.674Z,11.30
2023-11-22T11:14:30.789Z,11.30
2023-11-22T11:16:59.941Z,11.30
2023-11-22T11:19:28.580Z,11.30
2023-11-22T11:21:58.388Z,11.40
2023-11-22T11:24:26.006Z,11.30
2023-11-22T11:26:55.566Z,11.30
2023-11-22T11:29:34.435Z,11.30
2023-11-22T11:32:04.887Z,11.30
2023-11-22T11:34:32.442Z,11.30
2023-11-22T11:37:05.380Z,11.40
2023-11-22T11:39:34.917Z,11.40
2023-11-22T11:42:17.491Z,11.50
2023-11-22T11:45:04.790Z,11.50
2023-11-22T11:47:32.856Z,11.60
2023-11-22T11:50:01.426Z,11.60
2023-11-22T11:52:28.985Z,11.60
2023-11-22T11:54:57.222Z,11.70
2023-11-22T11:57:24.840Z,11.80
2023-11-22T11:59:54.640Z,11.90
2023-11-22T12:02:23.034Z,11.90
2023-11-22T12:04:50.689Z,11.90
2023-11-22T12:07:18.273Z,12.00
2023-11-22T12:09:47.846Z,12.00
2023-11-22T12:12:16.178Z,12.00
2023-11-22T12:14:44.461Z,12.10
2023-11-22T12:17:12.057Z,12.10
2023-11-22T12:19:39.884Z,12.10
2023-11-22T12:22:08.976Z,12.10
2023-11-22T12:24:36.743Z,12.10
2023-11-22T12:27:05.850Z,12.10
2023-11-22T12:29:36.822Z,12.10
2023-11-22T12:32:04.439Z,12.10
2023-11-22T12:34:34.607Z,12.10
2023-11-22T12:37:02.377Z,12.00
2023-11-22T12:39:30.190Z,12.00
2023-11-22T12:42:06.555Z,12.00
2023-11-22T12:44:54.433Z,12.10
2023-11-22T12:47:38.754Z,12.10
2023-11-22T12:50:08.459Z,12.10
2023-11-22T12:52:35.948Z,12.10
2023-11-22T12:55:05.632Z,12.00
2023-11-22T12:57:34.013Z,12.10
2023-11-22T13:00:01.562Z,12.10
2023-11-22T13:02:31.304Z,12.10
2023-11-22T13:04:59.179Z,12.10
2023-11-22T13:07:28.097Z,12.20
2023-11-22T13:09:55.650Z,12.20
2023-11-22T13:12:23.056Z,12.20
2023-11-22T13:14:52.033Z,12.20
2023-11-22T13:17:19.624Z,12.20
2023-11-22T13:19:50.502Z,12.30
2023-11-22T13:22:18.060Z,12.30
2023-11-22T13:24:45.546Z,12.30
2023-11-22T13:27:12.992Z,12.30
2023-11-22T13:29:40.591Z,12.30
2023-11-22T13:32:09.088Z,12.30
2023-11-22T13:34:37.004Z,12.40
2023-11-22T13:37:05.869Z,12.30
2023-11-22T13:39:34.709Z,12.30
2023-11-22T13:42:02.346Z,12.30
2023-11-22T13:44:29.929Z,12.30
2023-11-22T13:46:57.536Z,12.30
2023-11-22T13:49:28.012Z,12.30
2023-11-22T13:51:55.476Z,12.30
2023-11-22T13:54:22.986Z,12.30
2023-11-22T13:56:50.722Z,12.40
2023-11-22T13:59:18.207Z,12.40
2023-11-22T14:01:46.720Z,12.40
2023-11-22T14:04:14.704Z,12.40
2023-11-22T14:06:42.229Z,12.40
2023-11-22T14:09:10.528Z,12.40
2023-11-22T14:11:38.951Z,12.40
2023-11-22T14:14:06.775Z,12.40
2023-11-22T14:16:36.242Z,12.40
2023-11-22T14:19:03.950Z,12.40
2023-11-22T14:21:33.345Z,12.30
2023-11-22T14:24:00.917Z,12.30
2023-11-22T14:26:28.513Z,12.30
2023-11-22T14:28:55.972Z,12.30
2023-11-22T14:31:24.035Z,12.30
2023-11-22T14:33:51.580Z,12.30
2023-11-22T14:36:19.364Z,12.30
2023-11-22T14:38:54.878Z,12.30
2023-11-22T14:41:22.529Z,12.30
2023-11-22T14:43:50.342Z,12.30
2023-11-22T14:46:18.967Z,12.30
2023-11-22T14:48:48.063Z,12.40
2023-11-22T14:51:15.688Z,12.40
2023-11-22T14:53:43.283Z,12.40
2023-11-22T14:56:12.418Z,12.40
2023-11-22T14:58:41.643Z,12.40
2023-11-22T15:01:09.839Z,12.40
2023-11-22T15:03:37.703Z,12.30
2023-11-22T15:06:06.129Z,12.30
2023-11-22T15:08:34.769Z,12.30
2023-11-22T15:11:02.753Z,12.30
2023-11-22T15:13:31.025Z,12.30
2023-11-22T15:15:59.392Z,12.30
2023-11-22T15:18:28.544Z,12.30
2023-11-22T15:20:56.062Z,12.30
2023-11-22T15:23:23.765Z,12.30
2023-11-22T15:25:51.649Z,12.30
2023-11-22T15:28:23.924Z,12.30
2023-11-22T15:31:00.018Z,12.30
2023-11-22T15:33:27.820Z,12.20
2023-11-22T15:35:55.671Z,12.20
2023-11-22T15:38:23.446Z,12.20
2023-11-22T15:40:51.084Z,12.20
2023-11-22T15:43:18.580Z,12.20
2023-11-22T15:45:46.103Z,12.10
2023-11-22T15:48:16.074Z,12.10
2023-11-22T15:50:43.718Z,12.10
2023-11-22T15:53:14.481Z,12.10
2023-11-22T15:55:42.138Z,12.10
2023-11-22T15:58:10.080Z,12.10
2023-11-22T16:00:38.013Z,12.10
2023-11-22T16:03:10.110Z,12.10
2023-11-22T16:05:37.920Z,12.00
2023-11-22T16:08:05.424Z,12.00
2023-11-22T16:10:32.839Z,12.00
2023-11-22T16:13:01.699Z,12.00
2023-11-22T16:15:29.139Z,12.00
2023-11-22T16:17:57.544Z,12.00
2023-11-22T16:20:25.150Z,12.00
2023-11-22T16:22:52.626Z,12.00
2023-11-22T16:25:24.094Z,12.00
2023-11-22T16:27:52.049Z,12.00
2023-11-22T16:30:19.557Z,12.00
2023-11-22T16:32:47.283Z,12.00
2023-11-22T16:35:17.294Z,12.00
2023-11-22T16:37:45.279Z,12.00
2023-11-22T16:40:13.547Z,11.90
2023-11-22T16:42:41.244Z,12.00
2023-11-22T16:45:09.350Z,12.00
2023-11-22T16:47:37.728Z,12.00
2023-11-22T16:50:06.940Z,12.00
2023-11-22T16:52:34.596Z,12.00
2023-11-22T16:55:04.689Z,12.00
2023-11-22T16:57:32.370Z,12.00
2023-11-22T17:00:01.219Z,12.00
2023-11-22T17:02:28.884Z,12.00
2023-11-22T17:04:58.438Z,12.00
2023-11-22T17:07:26.023Z,12.00
2023-11-22T17:09:53.491Z,12.00
2023-11-22T17:12:21.470Z,12.00
2023-11-22T17:14:50.067Z,12.00
2023-11-22T17:17:17.596Z,12.10
2023-11-22T17:19:45.155Z,12.10
2023-11-22T17:22:12.923Z,12.10
2023-11-22T17:24:43.357Z,12.10
2023-11-22T17:27:10.852Z,12.10
2023-11-22T17:29:38.460Z,12.00
2023-11-22T17:32:06.347Z,12.10
2023-11-22T17:34:34.006Z,12.10
2023-11-22T17:37:01.589Z,12.10
2023-11-22T17:39:29.035Z,12.10
2023-11-22T17:41:57.758Z,12.10
2023-11-22T17:44:26.201Z,12.10
2023-11-22T17:46:53.763Z,12.10
2023-11-22T17:49:22.970Z,12.10
2023-11-22T17:51:55.665Z,12.10
2023-11-22T17:54:23.312Z,12.10
2023-11-22T17:56:50.983Z,12.10
2023-11-22T17:59:19.743Z,12.10
2023-11-22T18:01:47.529Z,12.10
2023-11-22T18:04:15.269Z,12.10
2023-11-22T18:06:44.771Z,12.10
2023-11-22T18:09:12.604Z,12.10
2023-11-22T18:11:40.160Z,12.10
2023-11-22T18:14:08.344Z,12.20
2023-11-22T18:16:36.036Z,12.20
2023-11-22T18:19:03.612Z,12.20
2023-11-22T18:21:31.390Z,12.20
2023-11-22T18:23:58.961Z,12.20
2023-11-22T18:26:26.890Z,12.20
2023-11-22T18:28:54.932Z,12.30
2023-11-22T18:31:22.699Z,12.20
2023-11-22T18:33:50.202Z,12.20
2023-11-22T18:36:20.722Z,12.30
2023-11-22T18:38:48.684Z,12.20
2023-11-22T18:41:17.071Z,12.30
2023-11-22T18:43:45.956Z,12.30
2023-11-22T18:46:13.669Z,12.30
2023-11-22T18:48:41.430Z,12.30
2023-11-22T18:51:09.078Z,12.30
2023-11-22T18:53:36.679Z,12.30
2023-11-22T18:56:04.414Z,12.40
2023-11-22T18:58:33.412Z,12.40
2023-11-22T19:01:01.310Z,12.30
2023-11-22T19:03:28.823Z,12.40
2023-11-22T19:05:57.041Z,12.40
2023-11-22T19:08:24.792Z,12.40
2023-11-22T19:10:52.268Z,12.40
2023-11-22T19:13:21.824Z,12.40
2023-11-22T19:15:50.457Z,12.40
2023-11-22T19:18:18.843Z,12.40
2023-11-22T19:20:46.451Z,12.50
2023-11-22T19:23:13.953Z,12.40
2023-11-22T19:25:41.505Z,12.50
2023-11-22T19:28:09.716Z,12.50
2023-11-22T19:30:37.213Z,12.50
2023-11-22T19:33:04.927Z,12.50
2023-11-22T19:35:32.587Z,12.50
2023-11-22T19:38:00.271Z,12.50
2023-11-22T19:40:30.619Z,12.60
2023-11-22T19:42:58.984Z,12.50
2023-11-22T19:45:26.474Z,12.50
2023-11-22T19:47:56.271Z,12.50
2023-11-22T19:50:24.337Z,12.50
2023-11-22T19:52:51.888Z,12.50
2023-11-22T19:55:20.073Z,12.50
2023-11-22T19:57:47.642Z,12.60
2023-11-22T20:00:16.084Z,12.60
2023-11-22T20:02:45.069Z,12.60
2023-11-22T20:05:13.378Z,12.60
2023-11-22T20:07:40.833Z,12.60
2023-11-22T20:10:08.845Z,12.60
2023-11-22T20:12:37.770Z,12.60
2023-11-22T20:15:06.312Z,12.60
2023-11-22T20:17:34.112Z,12.60
2023-11-22T20:20:02.103Z,12.50
2023-11-22T20:22:30.364Z,12.50
2023-11-22T20:24:58.839Z,12.50
2023-11-22T20:27:26.446Z,12.50
2023-11-22T20:29:53.902Z,12.40
2023-11-22T20:32:22.533Z,12.40
2023-11-22T20:34:50.202Z,12.40
2023-11-22T20:37:20.040Z,12.30
2023-11-22T20:39:47.491Z,12.30
2023-11-22T20:42:15.583Z,12.30
2023-11-22T20:44:43.324Z,12.30
2023-11-22T20:47:10.977Z,12.20
2023-11-22T20:49:38.772Z,12.20
2023-11-22T20:52:06.349Z,12.20
2023-11-22T20:54:33.810Z,12.10
2023-11-22T20:57:02.686Z,12.10
2023-11-22T20:59:30.767Z,12.10
2023-11-22T21:01:58.651Z,12.00
2023-11-22T21:04:27.005Z,12.00
2023-11-22T21:06:54.643Z,12.00
2023-11-22T21:09:22.684Z,12.00
2023-11-22T21:11:50.375Z,11.90
2023-11-22T21:14:17.916Z,11.90
2023-11-22T21:16:45.485Z,11.90
2023-11-22T21:19:13.293Z,11.80
2023-11-22T21:21:40.838Z,11.80
2023-11-22T21:24:08.773Z,11.80
2023-11-22T21:26:37.488Z,11.70
2023-11-22T21:29:05.028Z,11.70
2023-11-22T21:31:33.341Z,11.70
2023-11-22T21:34:00.840Z,11.60
2023-11-22T21:36:28.387Z,11.90
2023-11-22T21:38:56.294Z,11.60
2023-11-22T21:41:23.880Z,11.60
2023-11-22T21:43:53.342Z,11.60
2023-11-22T21:46:21.153Z,11.60
2023-11-22T21:48:48.742Z,11.50
2023-11-22T21:51:16.557Z,11.50
2023-11-22T21:53:44.184Z,12.10
2023-11-22T21:56:11.817Z,11.50
2023-11-22T21:58:39.312Z,11.50
2023-11-22T22:01:12.072Z,11.40
2023-11-22T22:03:42.965Z,11.40
2023-11-22T22:06:10.768Z,11.40
2023-11-22T22:08:38.459Z,11.40
2023-11-22T22:11:06.370Z,11.30
2023-11-22T22:13:34.612Z,11.30
2023-11-22T22:16:01.985Z,11.30
2023-11-22T22:18:29.499Z,11.30
2023-11-22T22:20:57.138Z,11.30
2023-11-22T22:23:24.713Z,11.30
2023-11-22T22:25:52.106Z,11.30
2023-11-22T22:28:19.905Z,11.30
2023-11-22T22:30:48.245Z,11.30
2023-11-22T22:33:15.883Z,11.30
2023-11-22T22:35:44.580Z,11.20
2023-11-22T22:38:12.088Z,11.30
2023-11-22T22:40:39.567Z,11.20
2023-11-22T22:43:08.230Z,11.20
2023-11-22T22:45:36.111Z,11.20
2023-11-22T22:48:04.106Z,11.20
2023-11-22T22:50:31.974Z,11.20
2023-11-22T22:52:59.691Z,11.20
2023-11-22T22:55:27.168Z,11.20
2023-11-22T22:57:54.632Z,11.20
2023-11-22T23:00:29.173Z,11.20
2023-11-22T23:02:57.047Z,11.20
2023-11-22T23:05:27.027Z,11.20
2023-11-22T23:07:54.905Z,11.20
2023-11-22T23:10:22.827Z,11.20
2023-11-22T23:12:52.930Z,11.10
2023-11-22T23:15:21.426Z,11.20
2023-11-22T23:17:49.128Z,11.10
2023-11-22T23:20:17.562Z,11.20
2023-11-22T23:22:45.475Z,11.10
2023-11-22T23:25:15.884Z,11.10
2023-11-22T23:27:45.426Z,11.10
2023-11-22T23:30:13.525Z,11.10
2023-11-22T23:32:43.598Z,11.10
2023-11-22T23:35:18.104Z,11.10
2023-11-22T23:37:48.950Z,11.10
2023-11-22T23:40:23.128Z,11.10
2023-11-22T23:42:51.253Z,11.10
2023-11-22T23:45:22.388Z,11.10
2023-11-22T23:47:51.606Z,11.10
2023-11-22T23:50:19.470Z,11.10
2023-11-22T23:52:47.414Z,11.10
2023-11-22T23:55:15.538Z,11.10
2023-11-22T23:57:43.236Z,11.10
